Time;durP1;ratioP1;P1;durP2;ratioP2;P2;SDS_P1;SDS_P2;PMS_P1;PMS_P2;Temp;Humidity;BMP_temperature;BMP_pressure;BME280_temperature;BME280_humidity;BME280_pressure;Samples;Min_cycle;Max_cycle;Signal;HPM_P1;HPM_P2
2022/09/29 00:01:40;;;;;;;4.47;2.93;;;17.80;99.90;;;;;;4952339;28;20216;-85
2022/09/29 00:04:12;;;;;;;5.67;2.63;;;17.80;99.90;;;;;;4965708;28;20685;-84
2022/09/29 00:06:45;;;;;;;3.80;2.60;;;17.80;99.90;;;;;;4975300;28;20209;-93
2022/09/29 00:09:16;;;;;;;4.63;2.70;;;18.00;99.90;;;;;;4975681;28;20538;-94
2022/09/29 00:11:48;;;;;;;4.23;2.60;;;18.00;99.90;;;;;;4956730;28;20294;-94
2022/09/29 00:14:18;;;;;;;2.47;2.27;;;17.90;99.90;;;;;;4960201;28;20207;-93
2022/09/29 00:16:49;;;;;;;2.33;2.13;;;17.90;99.90;;;;;;4963676;28;20577;-94
2022/09/29 00:19:20;;;;;;;2.73;2.40;;;18.00;99.90;;;;;;4974737;28;20283;-94
2022/09/29 00:21:53;;;;;;;3.37;2.40;;;18.10;99.90;;;;;;4974807;28;20237;-92
2022/09/29 00:24:25;;;;;;;3.00;2.63;;;18.20;99.90;;;;;;4975236;28;20218;-92
2022/09/29 00:26:56;;;;;;;2.57;2.37;;;18.20;99.90;;;;;;4974787;28;20221;-91
2022/09/29 00:29:27;;;;;;;6.47;2.40;;;18.30;99.90;;;;;;4973073;28;20240;-92
2022/09/29 00:31:58;;;;;;;2.37;1.83;;;18.40;99.90;;;;;;4966685;28;20207;-92
2022/09/29 00:34:29;;;;;;;5.03;2.10;;;18.30;99.90;;;;;;4971322;28;20305;-92
2022/09/29 00:37:02;;;;;;;3.33;2.10;;;18.30;99.90;;;;;;4955696;28;20210;-92
2022/09/29 00:39:34;;;;;;;3.27;2.03;;;18.30;99.90;;;;;;4964405;28;20653;-85
2022/09/29 00:42:05;;;;;;;2.43;2.23;;;18.30;99.90;;;;;;4964305;28;20219;-87
2022/09/29 00:45:06;;;;;;;3.97;2.57;;;18.40;99.90;;;;;;4963087;28;20211;-87
2022/09/29 00:47:38;;;;;;;2.90;2.10;;;18.40;99.90;;;;;;4957762;28;20232;-93
2022/09/29 00:50:17;;;;;;;2.50;2.30;;;18.50;99.90;;;;;;4958148;28;20667;-92
2022/09/29 00:52:54;;;;;;;4.63;2.17;;;18.50;99.90;;;;;;4971099;28;20226;-93
2022/09/29 00:55:28;;;;;;;3.07;2.87;;;18.60;99.90;;;;;;4960922;28;20396;-93
2022/09/29 00:58:05;;;;;;;3.40;2.83;;;18.60;99.90;;;;;;4974611;28;20210;-92
2022/09/29 01:00:37;;;;;;;4.27;2.87;;;18.60;99.90;;;;;;4976354;28;20238;-92
2022/09/29 01:03:12;;;;;;;3.93;2.73;;;18.60;99.90;;;;;;4953837;28;20290;-93
2022/09/29 01:05:48;;;;;;;3.87;2.70;;;18.60;99.90;;;;;;4975481;28;20674;-93
2022/09/29 01:08:27;;;;;;;3.00;2.30;;;18.50;99.90;;;;;;4966503;28;20195;-92
2022/09/29 01:11:00;;;;;;;2.77;2.57;;;18.30;99.90;;;;;;4975262;28;20212;-93
2022/09/29 01:13:34;;;;;;;3.23;2.50;;;18.20;99.90;;;;;;4974159;28;20218;-94
2022/09/29 01:16:05;;;;;;;2.57;2.03;;;18.10;99.90;;;;;;4980138;28;20210;-94
2022/09/29 01:18:37;;;;;;;2.30;2.10;;;18.00;99.90;;;;;;4978088;28;20205;-94
2022/09/29 01:21:15;;;;;;;2.57;2.30;;;17.90;99.90;;;;;;4973472;28;20236;-92
2022/09/29 01:24:20;;;;;;;3.97;2.30;;;17.80;99.90;;;;;;4957803;29;20295;-92
2022/09/29 01:27:31;;;;;;;3.70;2.63;;;17.70;99.90;;;;;;4962678;28;20203;-91
2022/09/29 01:30:24;;;;;;;3.37;3.03;;;17.50;99.90;;;;;;4959889;28;20208;-95
2022/09/29 01:33:20;;;;;;;3.67;2.60;;;17.40;99.90;;;;;;4960684;28;20242;-94
2022/09/29 01:36:01;;;;;;;3.83;3.17;;;17.30;99.90;;;;;;4973971;28;20220;-93
2022/09/29 01:38:55;;;;;;;3.87;2.83;;;17.10;99.90;;;;;;4959810;28;20285;-93
2022/09/29 01:41:36;;;;;;;4.70;3.20;;;17.00;99.90;;;;;;4958475;29;20545;-93
2022/09/29 01:44:18;;;;;;;4.00;3.23;;;16.90;99.90;;;;;;4959442;28;20256;-94
2022/09/29 01:46:53;;;;;;;3.80;3.40;;;16.80;99.90;;;;;;4962282;28;20203;-92
2022/09/29 01:49:32;;;;;;;6.73;3.83;;;16.70;99.90;;;;;;4977238;28;20214;-93
2022/09/29 01:52:07;;;;;;;5.93;3.87;;;16.50;99.90;;;;;;4976473;28;20214;-93
2022/09/29 01:54:45;;;;;;;22.17;4.50;;;16.40;99.90;;;;;;4977623;28;20214;-94
2022/09/29 01:57:20;;;;;;;4.50;3.70;;;16.30;99.90;;;;;;4982072;28;20213;-95
2022/09/29 01:59:56;;;;;;;4.73;4.17;;;16.20;99.90;;;;;;4978522;28;20212;-95
2022/09/29 02:02:32;;;;;;;5.67;3.70;;;16.10;99.90;;;;;;4977830;28;20239;-96
2022/09/29 02:05:12;;;;;;;5.33;4.03;;;16.00;99.90;;;;;;4982688;28;20289;-94
2022/09/29 02:07:45;;;;;;;6.63;3.90;;;15.90;99.90;;;;;;4981101;28;20318;-94
2022/09/29 02:10:23;;;;;;;4.80;4.23;;;15.90;99.90;;;;;;4980077;28;20240;-95
2022/09/29 02:12:57;;;;;;;5.80;3.80;;;15.80;99.90;;;;;;4981499;28;20302;-94
2022/09/29 02:15:32;;;;;;;5.50;4.00;;;15.70;99.90;;;;;;4981606;28;20223;-94
2022/09/29 02:18:11;;;;;;;6.47;4.93;;;15.70;99.90;;;;;;4985429;28;20206;-95
2022/09/29 02:20:44;;;;;;;4.80;4.40;;;15.60;99.90;;;;;;4997713;28;20282;-94
2022/09/29 02:23:15;;;;;;;6.87;5.40;;;15.50;99.90;;;;;;4996404;28;20203;-94
2022/09/29 02:25:51;;;;;;;6.47;5.20;;;15.50;99.90;;;;;;4991856;28;20207;-94
2022/09/29 02:28:22;;;;;;;8.50;5.30;;;15.40;99.90;;;;;;4980545;28;20283;-93
2022/09/29 02:30:54;;;;;;;5.87;5.30;;;15.40;99.90;;;;;;4981136;28;20217;-93
2022/09/29 02:33:27;;;;;;;5.57;5.07;;;15.40;99.90;;;;;;4979513;28;20280;-94
2022/09/29 02:36:18;;;;;;;5.47;4.97;;;15.30;99.90;;;;;;4976326;28;20222;-94
2022/09/29 02:38:56;;;;;;;6.37;5.47;;;15.30;99.90;;;;;;4977604;28;20219;-92
2022/09/29 02:41:41;;;;;;;6.00;5.40;;;15.30;99.90;;;;;;4977605;28;20309;-94
2022/09/29 02:44:25;;;;;;;5.63;5.00;;;15.30;99.90;;;;;;4960934;28;20214;-94
2022/09/29 02:47:13;;;;;;;6.50;4.77;;;15.40;99.90;;;;;;4977015;28;20219;-95
2022/09/29 02:50:00;;;;;;;5.70;4.27;;;15.40;99.90;;;;;;4977002;28;20233;-94
2022/09/29 02:52:43;;;;;;;5.33;4.80;;;15.40;99.90;;;;;;4977047;28;20211;-93
2022/09/29 02:55:20;;;;;;;4.73;4.23;;;15.40;99.90;;;;;;4975823;28;20203;-94
2022/09/29 02:57:55;;;;;;;5.73;5.17;;;15.40;99.90;;;;;;4976623;28;20203;-93
2022/09/29 03:00:27;;;;;;;5.63;5.07;;;15.40;99.90;;;;;;4977134;28;20227;-94
2022/09/29 03:03:00;;;;;;;7.00;5.60;;;15.40;99.90;;;;;;4976277;28;20395;-94
2022/09/29 03:05:31;;;;;;;7.87;5.73;;;15.30;99.90;;;;;;4977978;28;20207;-94
2022/09/29 03:08:04;;;;;;;7.20;5.73;;;15.30;99.90;;;;;;4974817;28;20211;-94
2022/09/29 03:10:35;;;;;;;6.53;5.93;;;15.30;99.90;;;;;;4977092;28;20207;-92
2022/09/29 03:13:06;;;;;;;6.63;6.03;;;15.30;99.90;;;;;;4976974;28;20203;-94
2022/09/29 03:15:37;;;;;;;6.80;6.20;;;15.30;99.90;;;;;;4976627;28;20295;-89
2022/09/29 03:18:08;;;;;;;7.33;6.63;;;15.20;99.90;;;;;;4967159;28;20207;-92
2022/09/29 03:20:39;;;;;;;8.60;7.13;;;15.30;99.90;;;;;;4962163;28;20215;-92
2022/09/29 03:23:12;;;;;;;7.03;6.33;;;15.20;99.90;;;;;;4976164;28;20225;-93
2022/09/29 03:25:43;;;;;;;7.40;6.13;;;15.20;99.90;;;;;;4972274;28;20207;-92
2022/09/29 03:28:15;;;;;;;7.07;6.37;;;15.10;99.90;;;;;;4973816;28;20214;-92
2022/09/29 03:30:46;;;;;;;6.77;5.83;;;15.10;99.90;;;;;;4965312;28;20211;-91
2022/09/29 03:33:17;;;;;;;8.27;6.07;;;15.10;99.90;;;;;;4970131;28;20247;-91
2022/09/29 03:35:48;;;;;;;6.97;5.80;;;15.00;99.90;;;;;;4974663;28;20436;-92
2022/09/29 03:38:22;;;;;;;7.13;5.70;;;15.00;99.90;;;;;;4969866;28;20253;-92
2022/09/29 03:40:54;;;;;;;5.90;5.33;;;15.00;99.90;;;;;;4975696;28;20210;-91
2022/09/29 03:43:24;;;;;;;8.00;5.53;;;14.90;99.90;;;;;;4974483;28;20831;-91
2022/09/29 03:45:56;;;;;;;5.50;4.97;;;14.80;99.90;;;;;;4975534;28;20211;-91
2022/09/29 03:48:30;;;;;;;5.77;4.60;;;14.70;99.90;;;;;;4970218;28;20215;-91
2022/09/29 03:51:00;;;;;;;6.03;4.63;;;14.60;99.90;;;;;;4974369;28;20211;-91
2022/09/29 03:53:35;;;;;;;6.70;5.70;;;14.60;99.90;;;;;;4973972;28;20215;-90
2022/09/29 03:56:08;;;;;;;6.70;5.40;;;14.60;99.90;;;;;;4963963;28;20211;-89
2022/09/29 03:58:41;;;;;;;6.47;5.43;;;14.60;99.90;;;;;;4969272;28;20202;-90
2022/09/29 04:01:12;;;;;;;5.60;5.00;;;14.50;99.90;;;;;;4974056;28;20215;-91
2022/09/29 04:03:43;;;;;;;6.90;4.97;;;14.50;99.90;;;;;;4972461;28;20563;-91
2022/09/29 04:06:14;;;;;;;7.70;4.00;;;14.50;99.90;;;;;;4975337;28;20237;-92
2022/09/29 04:08:48;;;;;;;7.43;4.40;;;14.50;99.90;;;;;;4975483;28;20215;-92
2022/09/29 04:11:19;;;;;;;4.63;4.03;;;14.50;99.90;;;;;;4974688;28;20223;-91
2022/09/29 04:13:51;;;;;;;6.43;4.57;;;14.40;99.90;;;;;;4967979;28;20244;-91
2022/09/29 04:16:22;;;;;;;6.07;3.57;;;14.50;99.90;;;;;;4957987;28;20661;-91
2022/09/29 04:18:53;;;;;;;4.30;3.90;;;14.40;99.90;;;;;;4975522;28;20273;-91
2022/09/29 04:21:25;;;;;;;4.50;4.00;;;14.50;99.90;;;;;;4972196;28;20207;-89
2022/09/29 04:23:58;;;;;;;4.20;3.80;;;14.50;99.90;;;;;;4973583;28;20218;-91
2022/09/29 04:26:29;;;;;;;5.03;3.87;;;14.50;99.90;;;;;;4963789;28;20234;-92
2022/09/29 04:29:00;;;;;;;5.93;4.23;;;14.50;99.90;;;;;;4970662;28;20215;-91
2022/09/29 04:31:31;;;;;;;6.60;4.60;;;14.50;99.90;;;;;;4972436;28;20218;-92
2022/09/29 04:34:03;;;;;;;4.97;4.57;;;14.60;99.90;;;;;;4974680;28;20230;-91
2022/09/29 04:36:34;;;;;;;5.07;4.43;;;14.70;99.90;;;;;;4967498;28;20203;-91
2022/09/29 04:39:07;;;;;;;4.23;3.83;;;14.70;99.90;;;;;;4974926;28;20830;-91
2022/09/29 04:41:40;;;;;;;4.73;4.10;;;14.70;99.90;;;;;;4955136;28;20251;-92
2022/09/29 04:44:11;;;;;;;4.73;3.80;;;14.80;99.90;;;;;;4964718;28;20222;-91
2022/09/29 04:46:42;;;;;;;3.80;3.47;;;14.80;99.90;;;;;;4974822;28;20263;-92
2022/09/29 04:49:13;;;;;;;5.90;5.20;;;14.90;99.90;;;;;;4974450;28;20283;-91
2022/09/29 04:51:45;;;;;;;5.40;4.90;;;14.90;99.90;;;;;;4974039;28;20215;-91
2022/09/29 04:54:18;;;;;;;6.33;5.00;;;14.90;99.90;;;;;;4973719;28;20678;-90
2022/09/29 04:56:50;;;;;;;5.17;4.67;;;14.90;99.90;;;;;;4974786;28;20698;-91
2022/09/29 04:59:21;;;;;;;8.03;4.70;;;14.90;99.90;;;;;;4973109;28;20214;-91
2022/09/29 05:01:52;;;;;;;5.20;4.37;;;15.00;99.90;;;;;;4973317;28;20206;-91
2022/09/29 05:04:24;;;;;;;4.93;4.40;;;15.00;99.90;;;;;;4974809;28;20237;-91
2022/09/29 05:06:55;;;;;;;5.40;4.90;;;14.90;99.90;;;;;;4973639;28;20686;-91
2022/09/29 05:09:29;;;;;;;4.93;4.40;;;14.90;99.90;;;;;;4974695;28;20520;-90
2022/09/29 05:12:03;;;;;;;4.70;4.30;;;14.90;99.90;;;;;;4973460;28;20211;-91
2022/09/29 05:14:34;;;;;;;7.53;4.63;;;14.90;99.90;;;;;;4974621;28;20903;-91
2022/09/29 05:17:05;;;;;;;4.23;3.90;;;14.90;99.90;;;;;;4974872;28;20293;-91
2022/09/29 05:19:36;;;;;;;4.23;3.90;;;14.80;99.90;;;;;;4974711;28;20600;-91
2022/09/29 05:22:07;;;;;;;4.07;3.67;;;14.80;99.90;;;;;;4972478;28;20203;-92
2022/09/29 05:24:40;;;;;;;6.17;4.03;;;14.70;99.90;;;;;;4974747;28;20207;-93
2022/09/29 05:27:12;;;;;;;4.90;4.20;;;14.70;99.90;;;;;;4974627;28;20233;-92
2022/09/29 05:29:43;;;;;;;6.90;5.07;;;14.70;99.90;;;;;;4974271;28;20214;-91
2022/09/29 05:32:14;;;;;;;5.80;4.87;;;14.70;99.90;;;;;;4974147;28;20226;-91
2022/09/29 05:34:45;;;;;;;4.87;4.37;;;14.70;99.90;;;;;;4975120;28;20573;-91
2022/09/29 05:37:17;;;;;;;4.57;4.17;;;14.70;99.90;;;;;;4974201;28;20230;-90
2022/09/29 05:39:50;;;;;;;4.73;4.23;;;14.80;99.90;;;;;;4976740;28;20230;-92
2022/09/29 05:42:21;;;;;;;5.33;4.37;;;14.80;99.90;;;;;;4970637;28;20596;-90
2022/09/29 05:44:52;;;;;;;4.47;4.07;;;14.80;99.90;;;;;;4961666;28;20212;-92
2022/09/29 05:47:23;;;;;;;5.17;4.57;;;14.80;99.90;;;;;;4980521;28;20207;-91
2022/09/29 05:49:55;;;;;;;4.43;4.03;;;14.80;99.90;;;;;;4983243;28;20651;-91
2022/09/29 05:52:26;;;;;;;5.03;4.07;;;14.80;99.90;;;;;;4978146;28;20202;-90
2022/09/29 05:54:59;;;;;;;5.40;4.87;;;14.80;99.90;;;;;;4985076;28;20214;-90
2022/09/29 05:57:30;;;;;;;4.47;4.07;;;14.80;99.90;;;;;;4985303;28;20203;-89
2022/09/29 06:00:01;;;;;;;4.97;4.47;;;14.80;99.90;;;;;;4975224;28;20229;-90
2022/09/29 06:02:32;;;;;;;6.70;4.80;;;14.80;99.90;;;;;;4978394;28;20230;-89
2022/09/29 06:05:03;;;;;;;5.07;4.57;;;14.80;99.90;;;;;;4983309;28;20214;-90
2022/09/29 06:07:34;;;;;;;5.07;4.47;;;14.80;99.90;;;;;;4989779;28;20211;-93
2022/09/29 06:10:09;;;;;;;5.23;4.67;;;14.90;99.90;;;;;;4985884;28;20211;-89
2022/09/29 06:12:40;;;;;;;6.03;5.43;;;14.90;99.90;;;;;;4979199;28;20258;-90
2022/09/29 06:15:12;;;;;;;7.53;6.83;;;14.90;99.90;;;;;;4977864;28;20210;-90
2022/09/29 06:17:43;;;;;;;11.77;8.03;;;14.90;99.90;;;;;;4975635;28;20286;-92
2022/09/29 06:20:14;;;;;;;8.90;8.00;;;14.80;99.90;;;;;;4977801;28;20211;-91
2022/09/29 06:22:44;;;;;;;7.77;6.63;;;14.80;99.90;;;;;;4976460;28;20242;-91
2022/09/29 06:25:18;;;;;;;7.90;6.17;;;14.90;99.90;;;;;;4978345;28;20232;-91
2022/09/29 06:27:49;;;;;;;6.50;5.80;;;14.90;99.90;;;;;;4977414;28;20238;-91
2022/09/29 06:30:19;;;;;;;8.37;5.57;;;14.90;99.90;;;;;;4977810;28;20573;-91
2022/09/29 06:32:51;;;;;;;5.97;5.07;;;14.90;99.90;;;;;;4976060;28;20277;-90
2022/09/29 06:38:09;;;;;;;5.60;5.07;;;15.00;99.90;;;;;;4976938;28;20207;-91
2022/09/29 06:40:42;;;;;;;6.70;5.40;;;15.00;99.90;;;;;;4977311;28;20281;-91
2022/09/29 06:43:13;;;;;;;6.10;5.23;;;15.00;99.90;;;;;;4975882;28;20234;-90
2022/09/29 06:45:44;;;;;;;5.93;4.00;;;15.00;99.90;;;;;;4976900;28;20211;-90
2022/09/29 06:48:16;;;;;;;6.17;4.30;;;15.00;99.90;;;;;;4975944;28;20207;-90
2022/09/29 06:50:47;;;;;;;5.30;3.53;;;15.00;99.90;;;;;;4977081;28;20203;-90
2022/09/29 06:53:35;;;;;;;5.00;3.47;;;15.00;99.90;;;;;;4975803;28;20218;-90
2022/09/29 06:56:11;;;;;;;4.57;3.63;;;15.00;99.90;;;;;;4977151;28;20225;-91
2022/09/29 06:58:42;;;;;;;4.17;3.73;;;15.00;99.90;;;;;;4976690;28;20223;-91
2022/09/29 07:01:13;;;;;;;5.07;3.50;;;15.00;99.90;;;;;;4977128;28;20214;-90
2022/09/29 07:03:44;;;;;;;3.50;3.20;;;15.00;99.90;;;;;;4976275;28;20230;-90
2022/09/29 07:06:16;;;;;;;4.33;3.33;;;15.00;99.90;;;;;;4975740;28;20207;-90
2022/09/29 07:08:54;;;;;;;4.87;3.20;;;15.00;99.90;;;;;;4975727;28;20671;-92
2022/09/29 07:11:28;;;;;;;4.17;3.70;;;15.00;99.90;;;;;;4976000;28;20258;-90
2022/09/29 07:13:59;;;;;;;5.53;3.60;;;15.10;99.90;;;;;;4975900;28;20211;-90
2022/09/29 07:16:30;;;;;;;6.50;3.50;;;15.10;99.90;;;;;;4975836;28;20207;-90
2022/09/29 07:19:01;;;;;;;4.03;3.63;;;15.10;99.90;;;;;;4976191;28;20211;-90
2022/09/29 07:21:32;;;;;;;4.50;3.83;;;15.10;99.90;;;;;;4976509;28;20211;-92
2022/09/29 07:24:04;;;;;;;3.83;3.43;;;15.10;99.90;;;;;;4976299;28;20291;-92
2022/09/29 07:26:38;;;;;;;5.37;4.17;;;15.00;99.90;;;;;;4975447;28;20205;-91
2022/09/29 07:29:09;;;;;;;5.20;3.83;;;15.00;99.90;;;;;;4977886;28;20210;-91
2022/09/29 07:31:45;;;;;;;4.93;4.53;;;15.00;99.90;;;;;;4979680;28;20202;-93
2022/09/29 07:34:21;;;;;;;4.73;3.63;;;15.00;99.90;;;;;;4974397;28;20652;-92
2022/09/29 07:36:52;;;;;;;4.60;3.70;;;15.00;99.90;;;;;;4963754;28;20207;-91
2022/09/29 07:39:24;;;;;;;5.50;4.30;;;15.00;99.90;;;;;;4969899;28;20202;-91
2022/09/29 07:41:57;;;;;;;4.10;3.70;;;15.00;99.90;;;;;;4974577;28;20628;-91
2022/09/29 07:44:29;;;;;;;4.90;3.93;;;14.90;99.90;;;;;;4976808;28;20294;-91
2022/09/29 07:47:00;;;;;;;4.57;4.13;;;14.90;99.90;;;;;;4988323;28;20202;-92
2022/09/29 07:49:32;;;;;;;4.47;4.07;;;14.90;99.90;;;;;;4994067;28;20220;-93
2022/09/29 07:52:03;;;;;;;5.30;4.50;;;14.90;99.90;;;;;;4978981;28;20213;-91
2022/09/29 07:54:35;;;;;;;7.33;5.20;;;14.80;99.90;;;;;;4992876;28;20236;-91
2022/09/29 07:57:08;;;;;;;5.77;4.50;;;14.80;99.90;;;;;;4978070;28;20213;-93
2022/09/29 07:59:39;;;;;;;5.13;4.63;;;14.80;99.90;;;;;;4975829;28;20214;-91
2022/09/29 08:02:19;;;;;;;6.47;3.90;;;14.80;99.90;;;;;;4975974;28;20210;-90
2022/09/29 08:04:50;;;;;;;6.30;4.17;;;14.80;99.90;;;;;;4974668;28;20278;-92
2022/09/29 08:07:29;;;;;;;5.07;4.57;;;14.80;99.90;;;;;;4975885;28;20214;-91
2022/09/29 08:09:59;;;;;;;4.97;4.23;;;14.70;99.90;;;;;;4975356;28;20203;-92
2022/09/29 08:12:46;;;;;;;4.60;4.03;;;14.60;99.90;;;;;;4975070;28;20211;-92
2022/09/29 08:15:17;;;;;;;4.87;4.30;;;14.60;99.90;;;;;;4975922;28;20735;-91
2022/09/29 08:17:48;;;;;;;4.77;4.10;;;14.50;99.90;;;;;;4975976;28;20664;-91
2022/09/29 08:20:19;;;;;;;4.70;4.23;;;14.60;99.90;;;;;;4975378;28;20594;-90
2022/09/29 08:22:53;;;;;;;5.80;4.33;;;14.40;99.90;;;;;;4974257;28;20225;-91
2022/09/29 08:25:25;;;;;;;4.67;4.27;;;14.40;99.90;;;;;;4975031;28;20239;-92
2022/09/29 08:28:00;;;;;;;4.80;4.10;;;14.30;99.90;;;;;;4975269;28;20215;-90
2022/09/29 08:30:32;;;;;;;6.33;4.23;;;14.30;99.90;;;;;;4977385;28;20228;-92
2022/09/29 08:33:03;;;;;;;5.27;4.00;;;14.30;99.90;;;;;;4975051;28;20214;-92
2022/09/29 08:35:34;;;;;;;4.67;4.17;;;14.20;99.90;;;;;;4973601;28;20290;-91
2022/09/29 08:38:06;;;;;;;5.03;4.53;;;14.20;99.90;;;;;;4974355;28;20718;-91
2022/09/29 08:40:38;;;;;;;4.70;4.23;;;14.10;99.90;;;;;;4974692;28;20211;-90
2022/09/29 08:43:16;;;;;;;5.17;4.30;;;14.10;99.90;;;;;;4973939;28;20273;-91
2022/09/29 08:46:06;;;;;;;6.20;4.67;;;14.10;99.90;;;;;;4975211;28;20285;-91
2022/09/29 08:48:42;;;;;;;5.03;4.07;;;14.10;99.90;;;;;;4975169;28;20245;-91
2022/09/29 08:51:32;;;;;;;4.63;4.10;;;14.10;99.90;;;;;;4975288;28;20587;-92
2022/09/29 08:54:27;;;;;;;4.43;4.03;;;14.00;99.90;;;;;;4975229;28;20652;-91
2022/09/29 08:57:08;;;;;;;4.83;4.27;;;14.00;99.90;;;;;;4974417;28;20215;-91
2022/09/29 08:59:41;;;;;;;4.90;4.50;;;14.00;99.90;;;;;;4973492;28;20215;-91
2022/09/29 09:02:58;;;;;;;5.17;4.57;;;14.00;99.90;;;;;;4974286;28;20214;-91
2022/09/29 09:05:56;;;;;;;6.53;4.50;;;14.00;99.90;;;;;;4973536;28;20314;-89
2022/09/29 09:08:44;;;;;;;5.00;4.50;;;14.00;99.90;;;;;;4974915;28;20215;-92
2022/09/29 09:11:32;;;;;;;9.63;4.80;;;13.90;99.90;;;;;;4975441;28;20215;-91
2022/09/29 09:14:14;;;;;;;7.70;4.93;;;13.80;99.90;;;;;;4974452;28;20214;-91
2022/09/29 09:16:58;;;;;;;4.90;4.50;;;13.80;99.90;;;;;;4976061;28;20215;-91
2022/09/29 09:19:45;;;;;;;4.90;4.33;;;13.80;99.90;;;;;;4976531;28;20211;-89
2022/09/29 09:22:23;;;;;;;5.70;4.60;;;13.90;99.90;;;;;;4981590;28;20218;-91
2022/09/29 09:24:59;;;;;;;5.43;4.50;;;13.90;99.90;;;;;;4990938;28;20256;-91
2022/09/29 09:27:36;;;;;;;5.00;4.33;;;13.90;99.90;;;;;;4992783;28;20210;-91
2022/09/29 09:30:13;;;;;;;6.40;4.63;;;14.00;99.90;;;;;;4988038;28;20663;-92
2022/09/29 09:32:51;;;;;;;5.40;4.57;;;14.00;99.90;;;;;;4976680;28;20210;-91
2022/09/29 09:35:35;;;;;;;6.27;4.47;;;14.00;99.90;;;;;;4978274;28;20217;-90
2022/09/29 09:38:16;;;;;;;5.27;4.27;;;14.10;99.90;;;;;;4979707;28;20297;-91
2022/09/29 09:40:50;;;;;;;5.10;4.60;;;14.10;99.90;;;;;;4978543;28;20203;-91
2022/09/29 09:43:25;;;;;;;4.47;3.90;;;14.10;99.90;;;;;;4977466;28;20226;-91
2022/09/29 09:46:01;;;;;;;5.63;4.47;;;14.20;99.90;;;;;;4978086;28;20246;-92
2022/09/29 09:48:39;;;;;;;4.50;3.87;;;14.20;99.90;;;;;;4978049;28;20257;-92
2022/09/29 09:51:28;;;;;;;4.43;4.03;;;14.30;99.90;;;;;;4980788;28;20236;-92
2022/09/29 09:54:04;;;;;;;4.83;4.37;;;14.30;99.90;;;;;;4967080;28;20274;-91
2022/09/29 09:56:55;;;;;;;4.97;4.30;;;14.30;99.90;;;;;;4978223;28;20222;-92
2022/09/29 09:59:38;;;;;;;5.37;4.57;;;14.30;99.90;;;;;;4977971;28;20257;-90
2022/09/29 10:02:19;;;;;;;5.67;4.10;;;14.30;99.90;;;;;;4977963;28;20222;-91
2022/09/29 10:04:54;;;;;;;5.50;4.80;;;14.30;99.90;;;;;;4976809;28;20786;-91
2022/09/29 10:07:29;;;;;;;4.93;4.40;;;14.40;99.90;;;;;;4978057;28;20214;-90
2022/09/29 10:10:04;;;;;;;5.10;3.90;;;14.40;99.90;;;;;;4978095;28;20217;-91
2022/09/29 10:12:35;;;;;;;4.97;4.53;;;14.40;99.90;;;;;;4977341;28;20265;-92
2022/09/29 13:16:00;;;;;;;6.53;5.17;;;12.40;99.90;;;;;;4966721;28;20337;-91
2022/09/29 13:18:53;;;;;;;6.00;5.40;;;12.40;99.90;;;;;;4907427;29;20302;-91
2022/09/29 13:21:45;;;;;;;6.70;5.40;;;12.40;99.90;;;;;;4921723;29;20276;-92
2022/09/29 13:24:30;;;;;;;6.23;5.63;;;12.30;99.90;;;;;;4974045;28;20686;-91
2022/09/29 13:27:29;;;;;;;8.33;5.70;;;12.30;99.90;;;;;;4980214;28;20210;-91
2022/09/29 13:30:06;;;;;;;6.00;5.40;;;12.20;99.90;;;;;;4978161;28;20210;-91
2022/09/29 13:32:42;;;;;;;6.23;5.63;;;12.20;99.90;;;;;;4978412;28;20293;-91
2022/09/29 13:35:18;;;;;;;7.33;5.80;;;12.20;99.90;;;;;;4977677;28;20215;-91
2022/09/29 13:37:53;;;;;;;7.63;5.80;;;12.20;99.90;;;;;;4978768;28;20222;-92
2022/09/29 13:40:26;;;;;;;6.50;5.90;;;12.30;99.90;;;;;;4978878;28;20660;-92
2022/09/29 13:42:58;;;;;;;8.23;6.57;;;12.40;99.90;;;;;;4978214;28;20225;-92
2022/09/29 13:45:43;;;;;;;7.20;6.43;;;12.40;99.90;;;;;;4978630;28;20235;-90
2022/09/29 13:48:48;;;;;;;6.47;5.87;;;12.50;99.90;;;;;;4978624;28;20214;-92
2022/09/29 13:51:55;;;;;;;6.50;5.87;;;12.50;99.90;;;;;;4978166;28;20298;-91
2022/09/29 13:54:46;;;;;;;10.27;7.07;;;12.60;99.90;;;;;;4979085;28;20210;-91
2022/09/29 13:57:23;;;;;;;7.13;6.27;;;12.60;99.90;;;;;;4974833;28;20218;-91
2022/09/29 14:00:21;;;;;;;6.57;5.87;;;12.60;99.90;;;;;;4978147;28;20210;-91
2022/09/29 14:03:04;;;;;;;8.33;5.57;;;12.60;99.90;;;;;;4957719;28;20211;-90
2022/09/29 14:05:56;;;;;;;7.73;5.93;;;12.70;99.90;;;;;;4958966;28;20255;-92
2022/09/29 14:08:31;;;;;;;6.70;5.93;;;12.70;99.90;;;;;;4959049;28;20680;-92
2022/09/29 14:11:09;;;;;;;6.97;5.83;;;12.70;99.90;;;;;;4958277;28;20218;-90
2022/09/29 14:13:45;;;;;;;7.87;5.53;;;12.60;99.90;;;;;;4957676;28;20579;-90
2022/09/29 14:16:38;;;;;;;6.80;6.10;;;12.60;99.90;;;;;;4972166;28;20214;-92
2022/09/29 14:19:20;;;;;;;7.23;6.10;;;12.60;99.90;;;;;;4950201;28;20297;-91
2022/09/29 14:21:56;;;;;;;7.23;5.83;;;12.60;99.90;;;;;;4957142;28;20207;-90
2022/09/29 14:25:32;;;;;;;6.80;6.00;;;12.60;99.90;;;;;;4958032;28;20268;-92
2022/09/29 14:28:07;;;;;;;7.13;6.07;;;12.60;99.90;;;;;;4964677;28;20229;-91
2022/09/29 14:30:51;;;;;;;9.10;6.10;;;12.60;99.90;;;;;;4976389;28;20206;-91
2022/09/29 14:33:25;;;;;;;10.10;6.63;;;12.60;99.90;;;;;;4976258;28;20575;-91
2022/09/29 14:36:05;;;;;;;8.37;6.43;;;12.70;99.90;;;;;;4977781;28;20218;-91
2022/09/29 14:38:42;;;;;;;7.03;6.37;;;12.70;99.90;;;;;;4975725;28;20286;-91
2022/09/29 14:41:31;;;;;;;8.03;5.93;;;12.80;99.90;;;;;;4976520;28;20659;-90
2022/09/29 14:44:08;;;;;;;8.60;6.43;;;12.80;99.90;;;;;;4979285;28;20215;-91
2022/09/29 14:53:47;;;;;;;9.10;5.80;;;13.10;99.90;;;;;;4976944;28;20206;-91
2022/09/29 14:56:38;;;;;;;6.83;5.97;;;13.20;99.90;;;;;;4976635;28;20682;-92
2022/09/29 14:59:23;;;;;;;8.97;6.20;;;13.30;99.90;;;;;;4981209;28;20203;-91
2022/09/29 15:02:19;;;;;;;7.53;5.73;;;13.40;99.90;;;;;;4970935;28;20681;-92
2022/09/29 15:04:51;;;;;;;7.17;5.27;;;13.50;99.90;;;;;;4972819;28;20215;-91
2022/09/29 15:07:24;;;;;;;7.33;5.40;;;13.50;99.90;;;;;;4962232;28;20241;-92
2022/09/29 15:09:57;;;;;;;5.20;4.60;;;13.60;99.90;;;;;;4975346;28;20218;-92
2022/09/29 15:12:32;;;;;;;4.90;4.40;;;13.70;99.90;;;;;;4973780;28;20214;-91
2022/09/29 15:15:03;;;;;;;6.13;5.00;;;13.80;99.90;;;;;;4959986;28;20208;-91
2022/09/29 15:17:49;;;;;;;5.83;4.47;;;13.90;99.90;;;;;;4976820;28;20306;-90
2022/09/29 15:20:27;;;;;;;5.43;4.60;;;14.00;99.90;;;;;;4968260;28;20219;-91
2022/09/29 15:23:12;;;;;;;6.27;4.60;;;14.00;99.90;;;;;;4961419;28;20215;-91
2022/09/29 15:25:43;;;;;;;5.40;4.67;;;14.10;99.90;;;;;;4958249;28;20208;-91
2022/09/29 15:28:21;;;;;;;6.83;5.00;;;14.10;99.90;;;;;;4959587;28;20212;-91
2022/09/29 15:30:54;;;;;;;5.93;5.13;;;14.20;99.90;;;;;;4962062;28;20285;-92
2022/09/29 15:33:28;;;;;;;6.93;5.37;;;14.20;99.90;;;;;;4975195;28;20282;-90
2022/09/29 15:36:02;;;;;;;7.57;5.57;;;14.30;99.90;;;;;;4977103;28;20293;-91
2022/09/29 15:38:38;;;;;;;9.13;5.30;;;14.30;99.90;;;;;;4965501;28;20204;-91
2022/09/29 15:41:17;;;;;;;7.87;5.03;;;14.30;99.90;;;;;;4967866;28;20199;-91
2022/09/29 15:44:00;;;;;;;9.83;5.87;;;14.40;99.90;;;;;;4969771;28;20223;-91
2022/09/29 15:46:40;;;;;;;7.50;5.53;;;14.30;99.90;;;;;;4965619;28;20254;-91
2022/09/29 15:49:17;;;;;;;6.13;5.40;;;14.20;99.90;;;;;;4972718;28;20211;-90
2022/09/29 15:51:57;;;;;;;6.57;5.43;;;14.20;99.90;;;;;;4971188;28;20213;-91
2022/09/29 15:54:33;;;;;;;7.23;5.73;;;14.20;99.90;;;;;;4976770;28;20210;-90
2022/09/29 15:59:55;;;;;;;6.20;5.20;;;14.20;99.90;;;;;;4962445;28;20214;-91
2022/09/29 16:02:33;;;;;;;6.40;5.70;;;14.30;99.90;;;;;;4974459;28;20211;-92
2022/09/29 16:05:07;;;;;;;5.90;5.30;;;14.30;99.90;;;;;;4979720;28;20694;-91
2022/09/29 16:07:42;;;;;;;7.93;5.47;;;14.30;99.90;;;;;;4978639;28;20437;-91
2022/09/29 16:10:17;;;;;;;6.73;5.30;;;14.40;99.90;;;;;;4977146;28;20214;-91
2022/09/29 16:12:54;;;;;;;5.87;5.20;;;14.40;99.90;;;;;;4628797;28;10000259;-92
2022/09/29 16:15:30;;;;;;;6.47;4.93;;;14.50;99.90;;;;;;4978777;28;20230;-90
2022/09/29 16:18:06;;;;;;;6.13;4.57;;;14.60;99.90;;;;;;4991180;28;20800;-90
2022/09/29 16:20:38;;;;;;;5.57;4.33;;;14.70;99.90;;;;;;4982190;28;20219;-92
2022/09/29 16:23:10;;;;;;;4.40;4.00;;;14.90;99.90;;;;;;4989267;28;20293;-91
2022/09/29 16:25:42;;;;;;;6.37;4.20;;;15.00;99.90;;;;;;4980970;28;20206;-92
2022/09/29 16:28:28;;;;;;;6.43;3.77;;;15.20;99.90;;;;;;4982758;28;20238;-93
2022/09/29 16:31:06;;;;;;;5.50;3.67;;;15.40;99.90;;;;;;4978852;28;20644;-91
2022/09/29 16:33:44;;;;;;;5.67;4.30;;;15.40;99.90;;;;;;4977396;28;20206;-91
2022/09/29 16:39:45;;;;;;;4.83;3.93;;;15.70;99.90;;;;;;4966654;28;20238;-90
2022/09/29 16:42:20;;;;;;;6.37;4.03;;;15.70;99.90;;;;;;4969818;28;20206;-91
2022/09/29 16:44:52;;;;;;;4.10;3.70;;;15.70;99.90;;;;;;4970829;28;20217;-90
2022/09/29 16:47:28;;;;;;;5.50;4.13;;;15.70;99.90;;;;;;4974956;28;20235;-92
2022/09/29 16:50:02;;;;;;;6.50;3.93;;;15.70;99.90;;;;;;4972221;28;20730;-92